Time;durP1;ratioP1;P1;durP2;ratioP2;P2;SDS_P1;SDS_P2;PMS_P1;PMS_P2;Temp;Humidity;BMP_temperature;BMP_pressure;BME280_temperature;BME280_humidity;BME280_pressure;Samples;Min_cycle;Max_cycle;Signal;HPM_P1;HPM_P2
2022/11/10 00:00:37;;;;;;;1.85;1.30;;;17.80;93.20;;;;;;5012831;28;20183;-69
2022/11/10 00:03:22;;;;;;;3.78;1.55;;;17.80;93.20;;;;;;5025170;28;20230;-68
2022/11/10 00:06:08;;;;;;;1.35;1.25;;;17.80;93.20;;;;;;5032400;28;20187;-68
2022/11/10 00:08:52;;;;;;;1.10;1.00;;;17.80;93.20;;;;;;5032438;28;20178;-69
2022/11/10 00:11:36;;;;;;;1.67;1.00;;;17.80;93.10;;;;;;5031473;28;20183;-69
2022/11/10 00:17:23;;;;;;;1.90;1.15;;;17.80;93.10;;;;;;5032228;28;20198;-69
2022/11/10 00:20:09;;;;;;;2.35;1.20;;;17.80;93.20;;;;;;5032635;28;20212;-68
2022/11/10 00:22:55;;;;;;;1.00;1.00;;;17.80;93.10;;;;;;5032407;28;20206;-69
2022/11/10 00:25:39;;;;;;;2.03;1.25;;;17.80;93.10;;;;;;5031270;28;20276;-69
2022/11/10 00:28:23;;;;;;;2.08;1.48;;;17.80;93.10;;;;;;5031985;28;20206;-69
2022/11/10 00:31:08;;;;;;;1.30;1.20;;;17.80;93.10;;;;;;5031294;28;20190;-69
2022/11/10 00:33:53;;;;;;;1.45;1.10;;;17.80;93.10;;;;;;5032447;28;20253;-69
2022/11/10 00:36:38;;;;;;;1.20;1.10;;;17.80;93.10;;;;;;5031247;28;20238;-69
2022/11/10 00:39:22;;;;;;;1.02;0.95;;;17.80;93.10;;;;;;5031186;28;20181;-69
2022/11/10 00:42:06;;;;;;;1.35;1.00;;;17.90;93.10;;;;;;5031169;28;20194;-70
2022/11/10 00:44:51;;;;;;;1.90;1.35;;;17.80;93.00;;;;;;5031223;28;20218;-70
2022/11/10 00:47:35;;;;;;;1.05;0.98;;;17.80;93.10;;;;;;5031892;28;20257;-70
2022/11/10 00:50:19;;;;;;;1.33;1.23;;;17.80;93.00;;;;;;5031190;28;20194;-68
2022/11/10 00:53:04;;;;;;;2.22;1.10;;;17.80;93.10;;;;;;5032323;28;20265;-69
2022/11/10 00:55:48;;;;;;;2.00;1.20;;;17.80;93.00;;;;;;5023595;28;20238;-69
2022/11/10 00:58:32;;;;;;;1.10;1.00;;;17.80;93.00;;;;;;5010997;28;20565;-69
2022/11/10 01:01:24;;;;;;;1.10;1.00;;;17.80;93.00;;;;;;5012540;28;20208;-69
2022/11/10 01:04:09;;;;;;;0.93;0.90;;;17.80;93.00;;;;;;5011520;28;20247;-69
2022/11/10 01:06:53;;;;;;;1.10;1.00;;;17.80;93.00;;;;;;5011019;28;20210;-69
2022/11/10 01:09:37;;;;;;;1.20;1.10;;;17.80;92.90;;;;;;5011419;28;20260;-70
2022/11/10 01:12:21;;;;;;;1.08;0.98;;;17.80;92.90;;;;;;5012217;28;20254;-69
2022/11/10 01:15:07;;;;;;;1.20;1.10;;;17.80;92.90;;;;;;5013758;28;20215;-69
2022/11/10 01:17:54;;;;;;;1.00;1.00;;;17.80;92.90;;;;;;5014724;28;20211;-69
2022/11/10 01:20:38;;;;;;;0.98;0.90;;;17.80;92.90;;;;;;5014806;28;20254;-69
2022/11/10 01:23:23;;;;;;;1.77;1.00;;;17.80;92.90;;;;;;5015640;28;20223;-69
2022/11/10 01:26:08;;;;;;;2.13;0.95;;;17.80;92.90;;;;;;5015584;28;20222;-70
2022/11/10 01:28:52;;;;;;;1.73;1.00;;;17.80;92.80;;;;;;5014791;28;20196;-69
2022/11/10 01:31:37;;;;;;;1.27;1.10;;;17.80;92.80;;;;;;5014594;28;20179;-69
2022/11/10 01:34:21;;;;;;;0.98;0.98;;;17.80;92.90;;;;;;5014445;28;20270;-69
2022/11/10 01:37:06;;;;;;;1.17;0.80;;;17.80;92.80;;;;;;5015188;28;20246;-69
2022/11/10 01:39:50;;;;;;;0.80;0.80;;;17.80;92.90;;;;;;5014460;28;20230;-70
2022/11/10 01:42:49;;;;;;;1.15;0.80;;;17.80;92.80;;;;;;5014393;28;20269;-69
2022/11/10 01:45:59;;;;;;;2.35;0.90;;;17.80;92.80;;;;;;5015630;28;20259;-68
2022/11/10 01:48:56;;;;;;;1.52;1.00;;;17.80;92.80;;;;;;5014110;28;20187;-69
2022/11/10 01:51:48;;;;;;;1.33;1.00;;;17.80;92.80;;;;;;5014206;28;20191;-70
2022/11/10 01:54:45;;;;;;;2.13;1.00;;;17.80;92.80;;;;;;5015030;28;20283;-69
2022/11/10 01:57:30;;;;;;;1.17;0.88;;;17.80;92.60;;;;;;5014880;28;20183;-68
2022/11/10 02:00:19;;;;;;;1.00;0.80;;;17.80;92.70;;;;;;5025568;28;20198;-69
2022/11/10 02:03:15;;;;;;;1.00;0.90;;;17.80;92.70;;;;;;5034404;28;20229;-69
2022/11/10 02:06:00;;;;;;;1.58;0.90;;;17.80;92.80;;;;;;5056534;23;20246;-67
2022/11/10 02:08:46;;;;;;;1.15;1.00;;;17.80;92.60;;;;;;5034437;28;20230;-67
2022/11/10 02:11:32;;;;;;;1.38;0.90;;;17.80;92.90;;;;;;5033708;28;20262;-67
2022/11/10 02:14:16;;;;;;;1.58;0.80;;;17.80;92.50;;;;;;5034424;28;20218;-67
2022/11/10 02:17:01;;;;;;;0.70;0.70;;;17.80;92.70;;;;;;5034594;28;20322;-67
2022/11/10 02:19:45;;;;;;;1.23;0.90;;;17.80;92.60;;;;;;5033516;28;20251;-67
2022/11/10 02:22:33;;;;;;;1.80;0.98;;;17.80;92.50;;;;;;5033592;28;20214;-67
2022/11/10 02:25:21;;;;;;;1.17;0.90;;;17.80;92.50;;;;;;5032404;28;20242;-67
2022/11/10 02:28:06;;;;;;;1.20;0.70;;;17.80;92.50;;;;;;5034129;28;20213;-67
2022/11/10 02:30:51;;;;;;;4.13;0.90;;;17.80;92.60;;;;;;5033474;28;20202;-67
2022/11/10 02:33:36;;;;;;;1.83;0.93;;;17.70;92.50;;;;;;5034394;28;20175;-67
2022/11/10 02:36:20;;;;;;;0.98;0.90;;;17.70;92.50;;;;;;5033060;28;20206;-67
2022/11/10 02:39:05;;;;;;;1.13;1.00;;;17.70;92.40;;;;;;5033134;28;20218;-67
2022/11/10 02:41:49;;;;;;;0.80;0.77;;;17.70;92.70;;;;;;5033094;28;20597;-67
2022/11/10 02:44:34;;;;;;;0.98;0.85;;;17.80;92.40;;;;;;5034196;28;20217;-67
2022/11/10 02:47:18;;;;;;;1.00;0.75;;;17.70;92.30;;;;;;5032688;28;20210;-66
2022/11/10 02:50:03;;;;;;;0.70;0.70;;;17.70;92.30;;;;;;5033770;28;20316;-67
2022/11/10 02:52:47;;;;;;;0.75;0.70;;;17.80;92.30;;;;;;5032884;28;20185;-67
2022/11/10 02:55:32;;;;;;;1.05;0.85;;;17.70;92.30;;;;;;5032706;28;20276;-67
2022/11/10 02:58:16;;;;;;;2.88;0.90;;;17.80;92.30;;;;;;5032519;28;20259;-67
2022/11/10 03:01:05;;;;;;;0.73;0.73;;;17.70;92.30;;;;;;5033905;28;20272;-66
2022/11/10 03:03:49;;;;;;;0.95;0.70;;;17.70;92.30;;;;;;5032836;28;20190;-67
2022/11/10 03:06:34;;;;;;;1.90;1.00;;;17.70;92.30;;;;;;5033309;28;20206;-69
2022/11/10 03:09:18;;;;;;;0.75;0.70;;;17.70;92.30;;;;;;5033602;28;20229;-67
2022/11/10 03:12:02;;;;;;;1.45;1.00;;;17.70;92.30;;;;;;5032439;28;20229;-67
2022/11/10 03:14:47;;;;;;;2.13;1.00;;;17.70;92.20;;;;;;5032367;28;20273;-67
2022/11/10 03:17:31;;;;;;;0.70;0.70;;;17.80;92.20;;;;;;5032089;28;20181;-67
2022/11/10 03:20:15;;;;;;;1.05;0.90;;;17.70;92.30;;;;;;5032335;28;20265;-67
2022/11/10 03:23:03;;;;;;;1.10;0.80;;;17.70;92.10;;;;;;5032126;28;20256;-67
2022/11/10 03:25:47;;;;;;;0.70;0.65;;;17.70;92.10;;;;;;5033111;28;20753;-67
2022/11/10 03:28:33;;;;;;;0.60;0.60;;;17.70;92.10;;;;;;5032399;28;20288;-67
2022/11/10 03:31:18;;;;;;;0.70;0.70;;;17.70;92.10;;;;;;5032977;28;20244;-67
2022/11/10 03:34:02;;;;;;;0.85;0.80;;;17.70;92.10;;;;;;5033276;28;20245;-67
2022/11/10 03:36:47;;;;;;;0.93;0.80;;;17.70;92.10;;;;;;5032539;28;20207;-67
2022/11/10 03:39:30;;;;;;;1.52;0.80;;;17.70;92.00;;;;;;5024448;28;20684;-66
2022/11/10 03:42:15;;;;;;;2.22;0.88;;;17.70;92.00;;;;;;5025669;28;20190;-67
2022/11/10 03:44:59;;;;;;;0.95;0.88;;;17.70;92.00;;;;;;5032020;28;20250;-67
2022/11/10 03:47:48;;;;;;;0.85;0.77;;;17.70;92.10;;;;;;5029987;28;20245;-66
2022/11/10 03:50:32;;;;;;;1.10;1.00;;;17.70;92.10;;;;;;5031478;28;20186;-67
2022/11/10 03:53:16;;;;;;;2.20;0.85;;;17.70;91.90;;;;;;5031699;28;20221;-67
2022/11/10 03:56:05;;;;;;;0.60;0.60;;;17.70;91.90;;;;;;5032690;28;20222;-67
2022/11/10 03:58:49;;;;;;;0.80;0.80;;;17.70;91.90;;;;;;5031478;28;20213;-67
2022/11/10 04:01:33;;;;;;;1.55;0.70;;;17.70;91.90;;;;;;5032725;28;20218;-67
2022/11/10 04:10:24;;;;;;;1.35;0.88;;;17.70;91.90;;;;;;5032697;28;20194;-67
2022/11/10 04:16:13;;;;;;;0.73;0.73;;;17.70;91.80;;;;;;5009435;28;20268;-67
2022/11/10 04:18:57;;;;;;;1.08;0.98;;;17.70;91.90;;;;;;5032147;28;20186;-67
2022/11/10 04:21:41;;;;;;;1.27;0.70;;;17.70;91.80;;;;;;5032021;28;20206;-67
2022/11/10 04:24:25;;;;;;;1.75;0.82;;;17.70;91.80;;;;;;5031313;28;20272;-67
2022/11/10 04:27:10;;;;;;;0.98;0.80;;;17.70;91.80;;;;;;5031968;28;20214;-67
2022/11/10 04:29:54;;;;;;;0.88;0.88;;;17.70;91.80;;;;;;5031314;28;20560;-67
2022/11/10 04:32:38;;;;;;;1.00;0.90;;;17.70;91.80;;;;;;5031560;28;20607;-67
2022/11/10 04:35:22;;;;;;;1.58;0.90;;;17.70;91.80;;;;;;5032164;28;20600;-68
2022/11/10 04:38:06;;;;;;;1.55;0.80;;;17.70;91.70;;;;;;5032221;28;20229;-67
2022/11/10 04:40:50;;;;;;;1.10;0.70;;;17.70;91.60;;;;;;5032163;28;20186;-67
2022/11/10 04:43:35;;;;;;;0.93;0.82;;;17.70;91.80;;;;;;5031172;28;20190;-67
2022/11/10 04:46:27;;;;;;;0.90;0.90;;;17.70;91.70;;;;;;5039182;28;20221;-67
2022/11/10 04:49:11;;;;;;;0.85;0.70;;;17.60;91.60;;;;;;5053198;28;20205;-67
2022/11/10 04:51:56;;;;;;;0.80;0.80;;;17.70;91.70;;;;;;5055064;28;20221;-66
2022/11/10 04:54:40;;;;;;;0.70;0.70;;;17.70;91.50;;;;;;5054913;28;20260;-67
2022/11/10 04:57:24;;;;;;;1.20;1.10;;;17.70;91.60;;;;;;5055682;28;20256;-66
2022/11/10 05:00:09;;;;;;;0.70;0.70;;;17.60;91.50;;;;;;5043879;28;20225;-67
2022/11/10 05:02:53;;;;;;;1.15;0.90;;;17.70;91.50;;;;;;5035916;28;20238;-67
2022/11/10 05:05:38;;;;;;;0.82;0.80;;;17.70;91.60;;;;;;5034921;28;20228;-67
2022/11/10 05:08:23;;;;;;;1.50;0.80;;;17.60;91.40;;;;;;5035546;28;20693;-67
2022/11/10 05:11:08;;;;;;;0.70;0.70;;;17.70;91.50;;;;;;5034792;28;20658;-67
2022/11/10 05:13:52;;;;;;;1.05;0.95;;;17.70;91.50;;;;;;5034636;28;20254;-67
2022/11/10 05:16:36;;;;;;;1.20;1.00;;;17.70;91.50;;;;;;5034497;28;20174;-67
2022/11/10 05:19:21;;;;;;;0.93;0.80;;;17.60;91.40;;;;;;5035522;28;20183;-67
2022/11/10 05:22:06;;;;;;;1.20;1.10;;;17.60;91.40;;;;;;5035961;28;20661;-67
2022/11/10 05:24:51;;;;;;;1.23;0.90;;;17.70;91.40;;;;;;5035699;28;20249;-67
2022/11/10 05:27:34;;;;;;;0.80;0.80;;;17.70;91.50;;;;;;5034296;28;20253;-67
2022/11/10 05:30:19;;;;;;;1.13;1.00;;;17.70;91.50;;;;;;5034466;28;20693;-67
2022/11/10 05:33:04;;;;;;;0.90;0.90;;;17.70;91.30;;;;;;5034346;28;20267;-66
2022/11/10 05:35:49;;;;;;;1.25;1.15;;;17.60;91.30;;;;;;5035182;28;20337;-67
2022/11/10 05:38:34;;;;;;;2.25;1.10;;;17.60;91.40;;;;;;5034952;28;20253;-67
2022/11/10 05:41:18;;;;;;;0.90;0.90;;;17.60;91.30;;;;;;5034501;28;20186;-67
2022/11/10 05:44:03;;;;;;;1.00;1.00;;;17.60;91.20;;;;;;5034881;28;20241;-67
2022/11/10 05:46:47;;;;;;;1.20;1.10;;;17.60;91.30;;;;;;5033916;28;20210;-67
2022/11/10 05:49:31;;;;;;;1.05;1.05;;;17.60;91.30;;;;;;5035068;28;20234;-67
2022/11/10 05:52:15;;;;;;;1.17;1.08;;;17.60;91.20;;;;;;5035313;28;20183;-65
2022/11/10 05:55:00;;;;;;;1.17;1.00;;;17.60;91.20;;;;;;5046499;28;20272;-67
2022/11/10 05:57:50;;;;;;;1.23;1.00;;;17.60;91.10;;;;;;5033556;28;20256;-66
2022/11/10 06:00:34;;;;;;;1.50;1.40;;;17.60;91.10;;;;;;5033599;28;20267;-68
2022/11/10 06:03:19;;;;;;;1.33;1.13;;;17.60;91.20;;;;;;5033599;28;20186;-66
2022/11/10 06:06:04;;;;;;;1.63;1.13;;;17.60;91.10;;;;;;5034803;28;20225;-66
2022/11/10 06:08:49;;;;;;;1.30;1.20;;;17.60;91.10;;;;;;5033350;28;20186;-67
2022/11/10 06:11:33;;;;;;;1.40;1.30;;;17.60;91.00;;;;;;5033759;28;20179;-67
2022/11/10 06:14:17;;;;;;;1.40;1.30;;;17.60;91.10;;;;;;5034412;28;20265;-67
2022/11/10 06:17:01;;;;;;;1.27;1.20;;;17.60;91.00;;;;;;5033576;28;20189;-67
2022/11/10 06:19:46;;;;;;;1.38;1.20;;;17.60;91.30;;;;;;5033561;28;20253;-67
2022/11/10 06:22:30;;;;;;;1.65;1.30;;;17.60;91.00;;;;;;5033401;28;20203;-66
2022/11/10 06:25:14;;;;;;;1.50;1.30;;;17.60;91.00;;;;;;5033280;28;20222;-67
2022/11/10 06:27:58;;;;;;;1.40;1.30;;;17.60;91.00;;;;;;5032966;28;20218;-67
2022/11/10 06:30:43;;;;;;;1.50;1.40;;;17.60;91.00;;;;;;5033212;28;20182;-67
2022/11/10 06:33:26;;;;;;;1.55;1.30;;;17.60;90.90;;;;;;5033245;28;20247;-67
2022/11/10 06:36:11;;;;;;;1.48;1.33;;;17.60;90.90;;;;;;5033090;28;20296;-66
2022/11/10 06:38:55;;;;;;;1.50;1.40;;;17.60;90.90;;;;;;5033980;28;20234;-67
2022/11/10 06:41:40;;;;;;;1.45;1.35;;;17.60;90.90;;;;;;5033211;28;20325;-67
2022/11/10 06:44:23;;;;;;;1.50;1.40;;;17.60;90.90;;;;;;5033976;28;20249;-67
2022/11/10 06:47:07;;;;;;;1.20;1.10;;;17.60;90.90;;;;;;5013785;28;20234;-67
2022/11/10 06:49:52;;;;;;;1.55;1.30;;;17.60;90.80;;;;;;5032525;28;20237;-67
2022/11/10 06:52:36;;;;;;;1.58;1.45;;;17.60;90.60;;;;;;5032869;28;20177;-67
2022/11/10 06:55:20;;;;;;;1.42;1.23;;;17.60;90.60;;;;;;5033684;28;20210;-67
2022/11/10 06:58:04;;;;;;;1.27;1.17;;;17.50;90.60;;;;;;5052358;28;20189;-67
2022/11/10 07:00:48;;;;;;;1.50;1.40;;;17.50;90.70;;;;;;5052591;28;20228;-67
2022/11/10 07:03:32;;;;;;;1.40;1.30;;;17.60;90.80;;;;;;5053465;28;20330;-67
2022/11/10 07:06:17;;;;;;;1.55;1.40;;;17.50;90.60;;;;;;5052838;28;20752;-67
2022/11/10 07:09:02;;;;;;;1.77;1.63;;;17.60;90.30;;;;;;5052261;28;20209;-66
2022/11/10 07:11:46;;;;;;;1.30;1.20;;;17.50;90.50;;;;;;5051904;28;20225;-67
2022/11/10 07:14:30;;;;;;;1.48;1.23;;;17.60;90.50;;;;;;5052386;28;20336;-67
2022/11/10 07:17:15;;;;;;;1.52;1.13;;;17.50;90.50;;;;;;5053014;28;20224;-67
2022/11/10 07:19:59;;;;;;;1.60;1.50;;;17.50;90.40;;;;;;5052090;28;20201;-66
2022/11/10 07:22:43;;;;;;;2.05;1.75;;;17.50;90.30;;;;;;5053040;28;20214;-67
2022/11/10 07:25:31;;;;;;;1.73;1.63;;;17.50;90.30;;;;;;5052352;28;20217;-67
2022/11/10 07:28:15;;;;;;;1.95;1.75;;;17.60;90.40;;;;;;5052667;28;20284;-67
2022/11/10 07:31:01;;;;;;;1.48;1.38;;;17.50;90.40;;;;;;5053074;28;20184;-67
2022/11/10 07:33:46;;;;;;;2.25;1.67;;;17.50;90.40;;;;;;5052918;28;20218;-67
2022/11/10 07:36:30;;;;;;;2.30;2.10;;;17.60;90.50;;;;;;5053135;28;20196;-67
2022/11/10 07:39:15;;;;;;;1.80;1.70;;;17.60;90.40;;;;;;5051721;28;20181;-67
2022/11/10 07:41:59;;;;;;;1.70;1.50;;;17.60;90.40;;;;;;5053150;28;20700;-66
2022/11/10 07:44:44;;;;;;;2.22;2.03;;;17.60;90.20;;;;;;5052838;28;20221;-67
2022/11/10 07:47:28;;;;;;;1.90;1.70;;;17.60;90.40;;;;;;5051602;28;20209;-67
2022/11/10 07:50:12;;;;;;;2.10;1.98;;;17.60;90.40;;;;;;5052192;28;20286;-68
2022/11/10 07:53:06;;;;;;;1.70;1.60;;;17.60;90.30;;;;;;5051268;28;20668;-67
2022/11/10 07:55:50;;;;;;;1.92;1.65;;;17.60;90.30;;;;;;5051161;28;20205;-67
2022/11/10 07:58:35;;;;;;;1.63;1.50;;;17.60;90.30;;;;;;5048790;28;20635;-67
2022/11/10 08:01:19;;;;;;;1.92;1.83;;;17.60;90.30;;;;;;5051129;28;20248;-67
2022/11/10 08:04:04;;;;;;;1.70;1.60;;;17.60;90.30;;;;;;5051897;28;20201;-66
2022/11/10 08:06:48;;;;;;;1.95;1.83;;;17.60;90.20;;;;;;5046305;22;20633;-70
2022/11/10 08:09:33;;;;;;;1.80;1.70;;;17.60;90.20;;;;;;5031251;28;20256;-70
2022/11/10 08:12:17;;;;;;;1.80;1.70;;;17.60;90.20;;;;;;5031159;28;20202;-70
2022/11/10 08:15:02;;;;;;;1.70;1.60;;;17.60;90.30;;;;;;5031939;28;20663;-71
2022/11/10 08:17:47;;;;;;;1.60;1.50;;;17.60;90.30;;;;;;5031361;28;20261;-70
2022/11/10 08:20:32;;;;;;;1.73;1.60;;;17.60;90.30;;;;;;5017090;28;20222;-71
2022/11/10 08:23:17;;;;;;;2.05;1.73;;;17.60;90.20;;;;;;5016401;28;20206;-70
2022/11/10 08:26:01;;;;;;;2.47;1.60;;;17.60;90.10;;;;;;5032099;28;20272;-70
2022/11/10 08:28:46;;;;;;;1.92;1.60;;;17.60;90.10;;;;;;5016776;28;20270;-71
2022/11/10 08:31:32;;;;;;;1.80;1.60;;;17.60;90.20;;;;;;5016884;28;20253;-70
2022/11/10 08:34:17;;;;;;;1.95;1.70;;;17.60;90.10;;;;;;5016945;28;20221;-70
2022/11/10 08:37:01;;;;;;;1.80;1.70;;;17.60;90.20;;;;;;5017197;28;20273;-70
2022/11/10 08:39:45;;;;;;;2.42;1.70;;;17.70;90.20;;;;;;5016954;28;20286;-70
2022/11/10 08:42:29;;;;;;;2.25;1.80;;;17.60;90.10;;;;;;5030664;28;20682;-71
2022/11/10 08:45:14;;;;;;;1.73;1.48;;;17.60;90.10;;;;;;5031969;28;20217;-71
2022/11/10 08:48:12;;;;;;;2.58;1.75;;;17.60;90.10;;;;;;5027374;28;20250;-71
2022/11/10 08:50:59;;;;;;;1.75;1.40;;;17.60;90.10;;;;;;5031924;28;20210;-70
2022/11/10 08:53:44;;;;;;;1.40;1.30;;;17.70;90.20;;;;;;5031744;28;20249;-70
2022/11/10 08:56:28;;;;;;;1.52;1.42;;;17.60;90.10;;;;;;5016587;28;20217;-71
2022/11/10 08:59:12;;;;;;;1.80;1.70;;;17.70;90.00;;;;;;5016677;28;20277;-71
2022/11/10 09:01:57;;;;;;;1.70;1.60;;;17.60;90.00;;;;;;5016709;28;20198;-71
2022/11/10 09:04:41;;;;;;;2.25;1.40;;;17.70;90.00;;;;;;5031581;28;20190;-71
2022/11/10 09:07:26;;;;;;;1.33;1.20;;;17.70;90.00;;;;;;5031715;28;20280;-71
2022/11/10 09:10:12;;;;;;;2.00;1.40;;;17.70;90.00;;;;;;5016731;28;20293;-70
2022/11/10 09:13:01;;;;;;;1.92;1.75;;;17.70;90.00;;;;;;5030496;28;20194;-71
2022/11/10 09:15:46;;;;;;;1.58;1.48;;;17.70;90.00;;;;;;5030599;28;20222;-71
2022/11/10 09:18:30;;;;;;;2.00;1.67;;;17.70;90.00;;;;;;5031474;28;20310;-70
2022/11/10 09:21:15;;;;;;;1.85;1.40;;;17.70;90.00;;;;;;5031369;28;20233;-70
2022/11/10 09:23:59;;;;;;;2.30;1.95;;;17.70;90.00;;;;;;5031177;28;20697;-71
2022/11/10 09:26:46;;;;;;;2.13;1.90;;;17.70;90.10;;;;;;5031217;28;20269;-70
2022/11/10 09:29:30;;;;;;;2.08;1.75;;;17.70;90.10;;;;;;5016210;28;20202;-71
2022/11/10 09:32:14;;;;;;;2.15;1.90;;;17.70;90.10;;;;;;5031302;28;20217;-70
2022/11/10 09:34:59;;;;;;;2.00;1.83;;;17.70;90.10;;;;;;5016966;28;20229;-70
2022/11/10 09:37:43;;;;;;;1.88;1.23;;;17.70;90.20;;;;;;5034922;28;20220;-71
2022/11/10 09:40:49;;;;;;;1.73;1.40;;;17.70;90.20;;;;;;5019804;28;20577;-70
2022/11/10 09:44:13;;;;;;;1.60;1.50;;;17.70;90.30;;;;;;5019782;28;20253;-70
2022/11/10 09:47:03;;;;;;;1.58;1.48;;;17.70;90.20;;;;;;5034001;28;20361;-71
2022/11/10 09:50:00;;;;;;;1.42;1.30;;;17.70;90.30;;;;;;5033725;28;20226;-70
2022/11/10 09:52:48;;;;;;;1.80;1.70;;;17.70;90.40;;;;;;5033530;28;20190;-70
2022/11/10 09:55:47;;;;;;;1.63;1.50;;;17.70;90.20;;;;;;5034380;28;20269;-70
2022/11/10 09:58:41;;;;;;;2.15;1.48;;;17.70;90.20;;;;;;5033960;28;20214;-70
2022/11/10 10:02:21;;;;;;;2.70;2.00;;;17.70;90.30;;;;;;5034419;28;20194;-71
2022/11/10 10:05:50;;;;;;;1.40;1.25;;;17.70;90.30;;;;;;5012280;28;21197;-70
2022/11/10 10:08:48;;;;;;;1.70;1.60;;;17.70;90.30;;;;;;5032660;28;20241;-70
2022/11/10 10:11:59;;;;;;;1.55;1.40;;;17.70;90.40;;;;;;5013564;28;20219;-70
2022/11/10 10:15:30;;;;;;;2.90;1.58;;;17.70;90.30;;;;;;4999565;28;20646;-70
2022/11/10 10:18:38;;;;;;;1.70;1.45;;;17.70;90.40;;;;;;4999199;28;20217;-70
2022/11/10 10:21:46;;;;;;;1.40;1.30;;;17.70;90.30;;;;;;4999498;28;20230;-70
2022/11/10 10:24:32;;;;;;;1.63;1.45;;;17.70;90.40;;;;;;5014163;28;20223;-70
2022/11/10 10:27:24;;;;;;;1.40;1.30;;;17.70;90.40;;;;;;5014046;28;20219;-70
2022/11/10 10:30:19;;;;;;;1.90;1.30;;;17.70;90.40;;;;;;4999232;28;20199;-70
2022/11/10 10:33:16;;;;;;;1.98;1.27;;;17.70;90.40;;;;;;4999212;28;20203;-71
2022/11/10 10:36:08;;;;;;;1.50;1.30;;;17.70;90.30;;;;;;4999024;28;20262;-70
2022/11/10 10:38:59;;;;;;;1.60;1.33;;;17.70;90.40;;;;;;5012815;28;20280;-71
2022/11/10 10:41:45;;;;;;;1.10;1.10;;;17.70;90.40;;;;;;5012974;28;20226;-70
2022/11/10 10:44:29;;;;;;;1.20;1.10;;;17.70;90.30;;;;;;5013994;28;20230;-70
2022/11/10 10:47:14;;;;;;;1.45;1.30;;;17.70;90.20;;;;;;5011725;28;20266;-70
2022/11/10 10:50:40;;;;;;;1.30;1.17;;;17.70;90.20;;;;;;5013594;28;20194;-70
2022/11/10 10:53:25;;;;;;;2.15;1.40;;;17.70;90.20;;;;;;5013863;28;20198;-70
2022/11/10 10:56:21;;;;;;;1.20;1.05;;;17.80;90.40;;;;;;5052062;28;20290;-69
2022/11/10 10:59:20;;;;;;;1.33;1.02;;;17.80;90.30;;;;;;5014029;28;20195;-70
2022/11/10 11:02:30;;;;;;;1.40;1.27;;;17.80;90.20;;;;;;5031908;28;20193;-70
2022/11/10 11:05:18;;;;;;;1.55;1.38;;;17.80;90.20;;;;;;5038193;28;20599;-70
2022/11/10 11:08:03;;;;;;;1.27;1.17;;;17.80;90.20;;;;;;5033227;28;20702;-70
2022/11/10 11:10:47;;;;;;;1.30;1.20;;;17.80;90.20;;;;;;5032513;28;20179;-70
2022/11/10 11:13:31;;;;;;;1.92;1.25;;;17.80;90.10;;;;;;5032393;28;20254;-70
2022/11/10 11:16:16;;;;;;;1.85;1.20;;;17.80;90.10;;;;;;5018509;28;20210;-70
2022/11/10 11:19:00;;;;;;;1.63;1.23;;;17.80;90.20;;;;;;5018240;28;20182;-70
2022/11/10 11:22:15;;;;;;;1.75;1.27;;;17.80;90.20;;;;;;5018552;28;20202;-70
2022/11/10 11:25:26;;;;;;;1.45;1.27;;;17.80;90.00;;;;;;5033416;28;20646;-70
2022/11/10 11:28:32;;;;;;;1.95;1.20;;;17.80;90.20;;;;;;5032070;28;20206;-70
2022/11/10 11:31:38;;;;;;;1.40;1.02;;;17.80;90.20;;;;;;5032056;28;20189;-70
2022/11/10 11:34:35;;;;;;;1.05;1.02;;;17.80;90.00;;;;;;5036656;28;20222;-70
2022/11/10 11:37:38;;;;;;;1.30;1.20;;;17.80;90.00;;;;;;5036386;28;20202;-68
2022/11/10 11:41:00;;;;;;;1.40;1.27;;;17.80;90.00;;;;;;5039134;28;20236;-69
2022/11/10 11:44:27;;;;;;;4.38;1.40;;;17.80;90.00;;;;;;5043392;28;20195;-69
2022/11/10 11:47:28;;;;;;;2.50;1.40;;;17.80;90.20;;;;;;5036030;28;20214;-70
2022/11/10 11:50:23;;;;;;;0.90;0.90;;;17.80;90.10;;;;;;5037293;28;20677;-69
2022/11/10 11:53:36;;;;;;;1.00;0.90;;;17.80;89.90;;;;;;5019261;28;20198;-69
2022/11/10 11:56:38;;;;;;;2.15;1.00;;;17.80;90.00;;;;;;5030328;28;20592;-70
2022/11/10 11:59:56;;;;;;;1.23;1.13;;;17.80;90.10;;;;;;5044953;28;20665;-69
2022/11/10 12:03:07;;;;;;;1.95;1.00;;;17.80;89.80;;;;;;5012348;28;20320;-70
2022/11/10 12:06:09;;;;;;;1.60;1.25;;;17.80;90.10;;;;;;5018894;28;20280;-70
2022/11/10 12:09:30;;;;;;;1.15;1.00;;;17.80;90.10;;;;;;5032342;28;20209;-70
2022/11/10 12:12:39;;;;;;;1.67;1.10;;;17.80;89.90;;;;;;5054999;28;20170;-71
2022/11/10 12:15:49;;;;;;;1.63;1.33;;;17.80;90.20;;;;;;5048199;28;20353;-70
2022/11/10 12:18:39;;;;;;;2.83;1.00;;;17.80;90.20;;;;;;5015353;28;20215;-70
2022/11/10 12:22:14;;;;;;;2.55;1.10;;;17.80;90.20;;;;;;5008243;28;20241;-69
2022/11/10 12:25:56;;;;;;;1.15;1.02;;;17.80;90.20;;;;;;5012865;28;20300;-69
2022/11/10 12:29:05;;;;;;;1.20;1.00;;;17.80;90.20;;;;;;5008272;28;20230;-68
2022/11/10 12:31:56;;;;;;;0.77;0.77;;;17.80;90.00;;;;;;5031582;28;20190;-69
2022/11/10 12:34:47;;;;;;;1.10;0.90;;;17.80;90.00;;;;;;5032465;28;20202;-69
2022/11/10 12:37:49;;;;;;;1.35;1.23;;;17.80;89.90;;;;;;5033153;28;20256;-68
2022/11/10 12:40:41;;;;;;;1.30;1.00;;;17.80;90.20;;;;;;5052156;28;20224;-69
2022/11/10 12:43:38;;;;;;;1.40;0.80;;;17.80;90.10;;;;;;5032981;28;20234;-69
2022/11/10 12:46:22;;;;;;;2.55;0.90;;;17.80;90.00;;;;;;5031125;28;20230;-70
2022/11/10 12:49:31;;;;;;;1.20;0.90;;;17.80;90.00;;;;;;5031240;28;20244;-70
2022/11/10 12:52:31;;;;;;;0.88;0.80;;;17.80;89.90;;;;;;5017260;28;20179;-70
2022/11/10 12:55:15;;;;;;;1.08;0.88;;;17.80;89.90;;;;;;5012448;28;20235;-69
2022/11/10 12:58:04;;;;;;;1.52;0.90;;;17.80;89.40;;;;;;5020640;28;20245;-69
2022/11/10 13:00:57;;;;;;;1.20;0.90;;;17.80;89.70;;;;;;5035392;28;20251;-69
2022/11/10 13:03:59;;;;;;;1.05;0.80;;;17.80;89.70;;;;;;5032074;28;20183;-69
2022/11/10 13:06:56;;;;;;;1.63;1.10;;;17.80;89.70;;;;;;5022052;28;20253;-70
2022/11/10 13:09:43;;;;;;;1.63;0.98;;;17.80;89.20;;;;;;5047530;28;20262;-70
2022/11/10 13:12:27;;;;;;;2.47;1.00;;;17.80;89.40;;;;;;5045712;28;20241;-70
2022/11/10 13:15:34;;;;;;;2.97;1.00;;;17.80;89.70;;;;;;5034989;28;20752;-69
2022/11/10 13:18:41;;;;;;;2.42;1.00;;;17.80;89.70;;;;;;5034878;28;20646;-69
2022/11/10 13:21:50;;;;;;;1.52;0.90;;;17.80;89.20;;;;;;5033420;28;20198;-70
2022/11/10 13:24:41;;;;;;;2.33;0.98;;;17.80;89.60;;;;;;5035914;28;20218;-69
2022/11/10 13:27:32;;;;;;;2.90;0.90;;;17.80;89.90;;;;;;5038202;28;20214;-68
2022/11/10 13:30:45;;;;;;;1.30;0.80;;;17.80;89.70;;;;;;5037653;28;20182;-69
2022/11/10 13:33:37;;;;;;;1.15;0.77;;;17.80;89.50;;;;;;5052951;28;20258;-69
2022/11/10 13:36:43;;;;;;;1.10;0.90;;;17.80;89.70;;;;;;5034987;28;20210;-69
2022/11/10 13:39:32;;;;;;;2.15;1.00;;;17.80;90.00;;;;;;5029504;28;20240;-69
2022/11/10 13:42:22;;;;;;;1.15;0.85;;;17.80;89.70;;;;;;5035131;28;20198;-69
2022/11/10 13:45:41;;;;;;;1.20;0.82;;;17.80;89.70;;;;;;5046457;28;20221;-69
2022/11/10 13:48:53;;;;;;;1.50;0.80;;;17.80;89.40;;;;;;5054773;28;20225;-69
2022/11/10 13:51:47;;;;;;;1.48;1.10;;;17.80;90.00;;;;;;5040172;28;20181;-70
2022/11/10 13:55:06;;;;;;;1.58;0.88;;;17.80;89.70;;;;;;5037377;28;20249;-69
2022/11/10 13:58:23;;;;;;;1.52;1.00;;;17.80;89.80;;;;;;5051262;28;20233;-69
2022/11/10 14:01:16;;;;;;;3.22;1.10;;;17.80;89.70;;;;;;5053736;28;20181;-69
2022/11/10 14:04:02;;;;;;;0.80;0.70;;;17.80;89.50;;;;;;5053747;28;20190;-70
2022/11/10 14:09:38;;;;;;;1.10;0.88;;;17.80;89.70;;;;;;5031951;28;20215;-67
2022/11/10 14:12:34;;;;;;;2.92;0.75;;;17.80;89.70;;;;;;5033713;28;20271;-67
2022/11/10 14:15:22;;;;;;;1.15;0.80;;;17.80;89.50;;;;;;5034577;28;20238;-67
2022/11/10 14:18:28;;;;;;;1.35;0.80;;;17.80;89.80;;;;;;5033460;28;20175;-67
2022/11/10 14:21:25;;;;;;;1.23;0.80;;;17.80;90.00;;;;;;5034574;28;20214;-67
2022/11/10 14:24:24;;;;;;;3.10;0.82;;;17.80;90.00;;;;;;5033426;28;20267;-67
2022/11/10 14:27:21;;;;;;;2.45;0.82;;;17.80;89.70;;;;;;5033111;28;20229;-67
2022/11/10 14:30:19;;;;;;;2.65;0.88;;;17.80;89.80;;;;;;5033182;28;20190;-67
2022/11/10 14:33:09;;;;;;;2.95;1.30;;;17.80;90.00;;;;;;5033293;28;20237;-67
2022/11/10 14:36:07;;;;;;;1.33;0.90;;;17.80;90.00;;;;;;5034039;28;20214;-67
2022/11/10 14:38:52;;;;;;;2.85;1.23;;;17.80;89.50;;;;;;5032966;28;20225;-67
2022/11/10 14:41:45;;;;;;;1.80;0.90;;;17.80;90.00;;;;;;5034375;28;20190;-67
2022/11/10 14:44:31;;;;;;;2.00;1.02;;;17.80;90.00;;;;;;5033099;28;20179;-67
2022/11/10 14:47:32;;;;;;;2.15;1.25;;;17.80;90.00;;;;;;5032866;28;20295;-67
2022/11/10 14:50:33;;;;;;;1.58;1.00;;;17.80;90.00;;;;;;5032936;28;20183;-67
2022/11/10 14:53:32;;;;;;;1.45;1.05;;;17.80;89.70;;;;;;5032958;28;20206;-67
2022/11/10 14:56:26;;;;;;;2.00;1.10;;;17.80;89.80;;;;;;5032784;28;20218;-67
2022/11/10 14:59:13;;;;;;;2.45;1.17;;;17.80;89.90;;;;;;5032508;28;20182;-67
2022/11/10 15:02:00;;;;;;;2.05;1.13;;;17.80;90.00;;;;;;5032776;28;20214;-67